createdAt,value
2023-04-16T00:02:22.860Z,99889.33
2023-04-16T00:04:51.345Z,99888.94
2023-04-16T00:07:19.644Z,99887.69
2023-04-16T00:09:52.994Z,99886.08
2023-04-16T00:12:21.772Z,99888.85
2023-04-16T00:15:09.095Z,99893.49
2023-04-16T00:17:37.498Z,99890.05
2023-04-16T00:20:06.937Z,99891.42
2023-04-16T00:22:35.358Z,99891.77
2023-04-16T00:25:04.155Z,99891.06
2023-04-16T00:30:47.307Z,99893.94
2023-04-16T00:33:17.005Z,99890.67
2023-04-16T00:35:47.130Z,99890.04
2023-04-16T00:38:16.079Z,99887.95
2023-04-16T00:40:44.556Z,99889.89
2023-04-16T00:46:51.400Z,99894.20
2023-04-16T00:49:46.492Z,99896.52
2023-04-16T00:52:15.005Z,99895.94
2023-04-16T00:54:43.408Z,99897.08
2023-04-16T00:57:14.852Z,99898.55
2023-04-16T00:59:43.370Z,99895.98
2023-04-16T01:02:12.977Z,99897.04
2023-04-16T01:04:42.880Z,99903.62
2023-04-16T01:07:11.302Z,99904.20
2023-04-16T01:09:39.591Z,99910.02
2023-04-16T01:12:07.897Z,99913.79
2023-04-16T01:14:36.750Z,99913.57
2023-04-16T01:17:06.037Z,99916.48
2023-04-16T01:20:00.912Z,99920.24
2023-04-16T01:22:29.335Z,99919.45
2023-04-16T01:24:58.106Z,99919.63
2023-04-16T01:27:27.134Z,99922.02
2023-04-16T01:29:56.410Z,99916.98
2023-04-16T01:32:24.841Z,99921.39
2023-04-16T01:34:53.174Z,99917.55
2023-04-16T01:37:21.496Z,99922.52
2023-04-16T01:39:49.843Z,99918.50
2023-04-16T01:42:18.181Z,99922.70
2023-04-16T01:44:47.879Z,99928.81
2023-04-16T01:47:16.329Z,99932.10
2023-04-16T01:49:45.711Z,99939.75
2023-04-16T01:52:14.129Z,99940.61
2023-04-16T01:54:42.432Z,99936.39
2023-04-16T01:57:11.253Z,99934.52
2023-04-16T01:59:39.946Z,99937.02
2023-04-16T02:02:14.832Z,99930.47
2023-04-16T02:04:47.237Z,99934.02
2023-04-16T02:07:15.690Z,99935.38
2023-04-16T02:09:44.294Z,99936.44
2023-04-16T02:12:12.651Z,99933.49
2023-04-16T02:14:41.990Z,99933.85
2023-04-16T02:17:10.675Z,99935.61
2023-04-16T02:19:39.025Z,99935.48
2023-04-16T02:22:07.507Z,99935.16
2023-04-16T02:24:36.003Z,99941.90
2023-04-16T02:27:04.353Z,99943.09
2023-04-16T02:29:32.645Z,99941.15
2023-04-16T02:32:01.048Z,99946.48
2023-04-16T02:34:29.509Z,99945.38
2023-04-16T02:36:58.427Z,99949.09
2023-04-16T02:39:27.176Z,99953.45
2023-04-16T02:41:56.247Z,99954.00
2023-04-16T02:44:24.599Z,99959.02
2023-04-16T02:46:52.890Z,99962.06
2023-04-16T02:49:21.227Z,99961.09
2023-04-16T02:51:49.604Z,99960.66
2023-04-16T02:54:18.019Z,99966.33
2023-04-16T02:56:46.488Z,99965.77
2023-04-16T02:59:14.802Z,99964.87
2023-04-16T03:01:43.887Z,99966.99
2023-04-16T03:04:12.311Z,99964.99
2023-04-16T03:06:41.084Z,99969.15
2023-04-16T03:09:09.541Z,99973.70
2023-04-16T03:11:38.088Z,99978.16
2023-04-16T03:14:06.441Z,99978.79
2023-04-16T03:16:34.855Z,99979.02
2023-04-16T03:19:03.127Z,99986.50
2023-04-16T03:21:31.822Z,99987.26
2023-04-16T03:24:00.132Z,99989.51
2023-04-16T03:26:28.537Z,99987.76
2023-04-16T03:28:56.832Z,99988.30
2023-04-16T03:31:28.021Z,99992.40
2023-04-16T03:33:56.654Z,99998.30
2023-04-16T03:36:26.637Z,99997.61
2023-04-16T03:38:54.962Z,100002.14
2023-04-16T03:41:23.266Z,100005.81
2023-04-16T03:43:51.620Z,100007.64
2023-04-16T03:46:20.073Z,100012.27
2023-04-16T03:48:48.386Z,100013.55
2023-04-16T03:51:16.750Z,100017.46
2023-04-16T03:53:45.275Z,100020.55
2023-04-16T03:56:13.596Z,100025.34
2023-04-16T03:58:41.992Z,100029.38
2023-04-16T04:01:10.366Z,100036.09
2023-04-16T04:03:38.972Z,100036.95
2023-04-16T04:06:08.903Z,100038.52
2023-04-16T04:08:37.348Z,100038.42
2023-04-16T04:11:05.688Z,100039.28
2023-04-16T04:13:33.999Z,100043.33
2023-04-16T04:16:02.419Z,100043.18
2023-04-16T04:18:30.774Z,100043.15
2023-04-16T04:20:59.137Z,100044.12
2023-04-16T04:23:27.522Z,100044.81
2023-04-16T04:25:55.862Z,100047.42
2023-04-16T04:28:24.184Z,100050.20
2023-04-16T04:30:52.481Z,100053.27
2023-04-16T04:33:20.818Z,100053.21
2023-04-16T04:35:49.346Z,100053.66
2023-04-16T04:38:20.087Z,100057.48
2023-04-16T04:40:49.006Z,100056.23
2023-04-16T04:43:17.349Z,100055.84
2023-04-16T04:45:46.364Z,100062.33
2023-04-16T04:48:15.577Z,100066.92
2023-04-16T04:50:45.575Z,100067.32
2023-04-16T04:53:15.002Z,100070.21
2023-04-16T04:55:44.753Z,100072.70
2023-04-16T04:58:13.145Z,100077.51
2023-04-16T05:00:42.854Z,100080.77
2023-04-16T05:03:12.707Z,100082.70
2023-04-16T05:05:41.597Z,100082.39
2023-04-16T05:08:09.937Z,100085.67
2023-04-16T05:10:38.290Z,100089.72
2023-04-16T05:13:06.616Z,100095.30
2023-04-16T05:15:35.001Z,100100.44
2023-04-16T05:18:03.491Z,100100.77
2023-04-16T05:20:31.894Z,100101.98
2023-04-16T05:23:00.246Z,100103.27
2023-04-16T05:25:28.649Z,100107.49
2023-04-16T05:27:57.006Z,100110.31
2023-04-16T05:30:25.596Z,100111.38
2023-04-16T05:32:53.936Z,100110.93
2023-04-16T05:35:22.480Z,100112.58
2023-04-16T05:37:50.852Z,100110.33
2023-04-16T05:40:19.253Z,100117.38
2023-04-16T05:42:47.669Z,100117.08
2023-04-16T05:45:16.143Z,100122.48
2023-04-16T05:47:46.220Z,100127.55
2023-04-16T05:50:14.758Z,100133.55
2023-04-16T05:52:43.111Z,100136.02
2023-04-16T05:55:11.549Z,100137.85
2023-04-16T05:57:39.961Z,100139.41
2023-04-16T06:00:08.964Z,100138.55
2023-04-16T06:02:37.810Z,100140.03
2023-04-16T06:05:06.624Z,100141.19
2023-04-16T06:07:34.982Z,100147.48
2023-04-16T06:10:03.378Z,100151.04
2023-04-16T06:12:31.785Z,100160.59
2023-04-16T06:15:01.451Z,100162.92
2023-04-16T06:17:29.788Z,100164.54
2023-04-16T06:19:58.111Z,100164.33
2023-04-16T06:22:26.659Z,100168.45
2023-04-16T06:24:56.836Z,100167.93
2023-04-16T06:27:25.993Z,100175.91
2023-04-16T06:29:54.325Z,100173.73
2023-04-16T06:32:22.794Z,100179.23
2023-04-16T06:34:51.532Z,100174.80
2023-04-16T06:37:20.015Z,100177.80
2023-04-16T06:39:48.500Z,100178.14
2023-04-16T06:42:17.530Z,100179.15
2023-04-16T06:44:55.321Z,100182.33
2023-04-16T06:47:23.705Z,100183.98
2023-04-16T06:49:52.420Z,100179.73
2023-04-16T06:52:20.871Z,100175.67
2023-04-16T06:54:49.295Z,100178.09
2023-04-16T06:57:17.682Z,100177.16
2023-04-16T06:59:45.999Z,100175.14
2023-04-16T07:02:14.508Z,100176.48
2023-04-16T07:04:42.949Z,100181.19
2023-04-16T07:07:11.402Z,100181.02
2023-04-16T07:09:39.721Z,100185.58
2023-04-16T07:12:08.433Z,100192.02
2023-04-16T07:14:36.849Z,100194.95
2023-04-16T07:17:05.222Z,100197.77
2023-04-16T07:19:33.572Z,100195.84
2023-04-16T07:22:02.108Z,100201.73
2023-04-16T07:24:30.689Z,100200.14
2023-04-16T07:26:59.038Z,100202.11
2023-04-16T07:29:27.422Z,100208.97
2023-04-16T07:31:55.898Z,100210.98
2023-04-16T07:34:24.358Z,100214.20
2023-04-16T07:36:52.689Z,100212.95
2023-04-16T07:39:21.176Z,100216.82
2023-04-16T07:41:49.667Z,100217.14
2023-04-16T07:44:18.128Z,100215.77
2023-04-16T07:46:47.623Z,100215.61
2023-04-16T07:49:16.392Z,100218.48
2023-04-16T07:51:45.373Z,100221.45
2023-04-16T07:54:13.831Z,100222.50
2023-04-16T07:56:42.224Z,100221.86
2023-04-16T07:59:21.655Z,100220.52
2023-04-16T08:01:54.294Z,100225.33
2023-04-16T08:04:25.450Z,100227.41
2023-04-16T08:06:54.660Z,100227.85
2023-04-16T08:09:27.446Z,100226.77
2023-04-16T08:11:55.899Z,100224.54
2023-04-16T08:14:24.310Z,100225.40
2023-04-16T08:16:53.146Z,100228.00
2023-04-16T08:19:21.534Z,100228.11
2023-04-16T08:21:50.548Z,100229.28
2023-04-16T08:24:18.985Z,100232.36
2023-04-16T08:26:47.406Z,100235.27
2023-04-16T08:29:15.930Z,100236.33
2023-04-16T08:31:44.681Z,100235.20
2023-04-16T08:34:13.970Z,100235.66
2023-04-16T08:36:42.439Z,100238.90
2023-04-16T08:39:10.879Z,100245.77
2023-04-16T08:41:46.231Z,100249.30
2023-04-16T08:44:29.074Z,100254.69
2023-04-16T08:47:01.900Z,100259.23
2023-04-16T08:49:36.601Z,100256.98
2023-04-16T08:52:12.730Z,100259.97
2023-04-16T08:54:56.738Z,100258.09
2023-04-16T08:58:00.143Z,100258.33
2023-04-16T09:00:31.613Z,100255.05
2023-04-16T09:03:00.649Z,100255.98
2023-04-16T09:05:29.506Z,100258.27
2023-04-16T09:07:57.846Z,100264.45
2023-04-16T09:10:27.523Z,100266.75
2023-04-16T09:12:57.129Z,100268.71
2023-04-16T09:15:25.920Z,100267.60
2023-04-16T09:17:56.497Z,100266.09
2023-04-16T09:20:24.980Z,100262.39
2023-04-16T09:22:53.426Z,100265.35
2023-04-16T09:25:22.886Z,100264.04
2023-04-16T09:27:51.526Z,100263.92
2023-04-16T09:30:26.077Z,100261.09
2023-04-16T09:33:16.729Z,100269.45
2023-04-16T09:35:47.926Z,100275.42
2023-04-16T09:38:17.053Z,100276.86
2023-04-16T09:40:47.659Z,100280.05
2023-04-16T09:43:18.944Z,100281.36
2023-04-16T09:45:51.509Z,100284.67
2023-04-16T09:48:31.555Z,100285.17
2023-04-16T09:51:02.264Z,100292.37
2023-04-16T09:53:32.783Z,100287.84
2023-04-16T09:56:04.887Z,100290.31
2023-04-16T09:58:36.315Z,100290.45
2023-04-16T10:01:12.622Z,100290.59
2023-04-16T10:03:41.396Z,100293.17
2023-04-16T10:06:22.099Z,100296.36
2023-04-16T10:08:54.021Z,100292.79
2023-04-16T10:11:23.128Z,100287.38
2023-04-16T10:13:51.991Z,100291.26
2023-04-16T10:16:22.867Z,100287.90
2023-04-16T10:18:51.923Z,100289.48
2023-04-16T10:21:21.572Z,100286.77
2023-04-16T10:23:52.126Z,100291.49
2023-04-16T10:26:21.697Z,100289.86
2023-04-16T10:28:50.243Z,100290.95
2023-04-16T10:31:18.682Z,100290.02
2023-04-16T10:33:47.934Z,100294.09
2023-04-16T10:36:23.852Z,100295.41
2023-04-16T10:38:56.713Z,100292.36
2023-04-16T10:41:27.269Z,100290.73
2023-04-16T10:44:06.722Z,100286.00
2023-04-16T10:46:44.084Z,100285.64
2023-04-16T10:49:23.707Z,100283.73
2023-04-16T10:51:59.700Z,100286.95
2023-04-16T10:54:28.727Z,100288.46
2023-04-16T10:57:04.276Z,100293.60
2023-04-16T10:59:36.817Z,100291.13
2023-04-16T11:02:17.829Z,100293.04
2023-04-16T11:04:49.835Z,100296.45
2023-04-16T11:07:35.345Z,100298.48
2023-04-16T11:10:05.815Z,100296.89
2023-04-16T11:12:42.955Z,100297.75
2023-04-16T11:15:21.673Z,100298.05
2023-04-16T11:17:54.630Z,100297.42
2023-04-16T11:20:26.039Z,100297.54
2023-04-16T11:22:57.375Z,100297.90
2023-04-16T11:25:34.087Z,100297.38
2023-04-16T11:28:02.967Z,100294.61
2023-04-16T11:30:34.296Z,100299.02
2023-04-16T11:33:08.655Z,100299.85
2023-04-16T11:35:41.504Z,100297.09
2023-04-16T11:38:10.067Z,100298.73
2023-04-16T11:40:38.392Z,100302.95
2023-04-16T11:43:17.090Z,100310.28
2023-04-16T11:46:10.296Z,100311.21
2023-04-16T11:48:56.200Z,100311.67
2023-04-16T11:51:24.780Z,100310.92
2023-04-16T11:53:55.159Z,100312.87
2023-04-16T11:56:32.394Z,100313.39
2023-04-16T11:59:15.970Z,100309.48
2023-04-16T12:01:51.062Z,100308.11
2023-04-16T12:04:22.471Z,100308.70
2023-04-16T12:07:16.618Z,100307.48
2023-04-16T12:09:45.005Z,100310.26
2023-04-16T12:12:27.681Z,100312.83
2023-04-16T12:14:59.652Z,100310.80
2023-04-16T12:17:28.003Z,100313.22
2023-04-16T12:20:02.149Z,100311.99
2023-04-16T12:22:32.410Z,100311.11
2023-04-16T12:25:13.492Z,100311.38
2023-04-16T12:27:54.204Z,100312.23
2023-04-16T12:30:24.543Z,100310.49
2023-04-16T12:33:19.382Z,100306.02
2023-04-16T12:35:49.714Z,100306.86
2023-04-16T12:38:19.171Z,100306.10
2023-04-16T12:40:47.559Z,100304.45
2023-04-16T12:43:16.801Z,100305.80
2023-04-16T12:45:45.323Z,100308.73
2023-04-16T12:48:13.871Z,100308.63
2023-04-16T12:50:44.366Z,100309.84
2023-04-16T12:53:13.031Z,100310.89
2023-04-16T12:55:41.568Z,100310.66
2023-04-16T12:58:12.312Z,100310.47
2023-04-16T13:00:41.171Z,100309.42
2023-04-16T13:03:09.685Z,100309.52
2023-04-16T13:05:38.080Z,100311.77
2023-04-16T13:08:06.713Z,100307.11
2023-04-16T13:10:36.018Z,100305.85
2023-04-16T13:13:04.406Z,100307.36
2023-04-16T13:15:32.821Z,100304.75
2023-04-16T13:18:01.170Z,100300.27
2023-04-16T13:20:29.600Z,100302.56
2023-04-16T13:22:58.453Z,100299.48
2023-04-16T13:25:26.758Z,100298.15
2023-04-16T13:27:55.050Z,100298.34
2023-04-16T13:30:23.385Z,100297.39
2023-04-16T13:32:51.803Z,100299.39
2023-04-16T13:35:20.314Z,100294.57
2023-04-16T13:37:48.652Z,100293.97
2023-04-16T13:40:16.962Z,100296.30
2023-04-16T13:42:45.276Z,100294.92
2023-04-16T13:45:13.602Z,100295.14
2023-04-16T13:47:42.509Z,100297.02
2023-04-16T13:50:11.092Z,100293.41
2023-04-16T13:52:39.472Z,100290.39
2023-04-16T13:55:09.741Z,100293.36
2023-04-16T13:57:38.118Z,100293.70
2023-04-16T14:00:11.887Z,100293.05
2023-04-16T14:02:43.021Z,100289.10
2023-04-16T14:05:11.954Z,100283.90
2023-04-16T14:07:40.367Z,100288.27
2023-04-16T14:10:09.575Z,100288.67
2023-04-16T14:12:39.170Z,100289.17
2023-04-16T14:22:40.215Z,100277.66
2023-04-16T14:25:08.909Z,100281.09
2023-04-16T14:27:37.289Z,100280.38
2023-04-16T14:30:06.973Z,100283.08
2023-04-16T14:32:36.343Z,100285.46
2023-04-16T14:35:05.681Z,100282.06
2023-04-16T14:37:36.290Z,100283.30
2023-04-16T14:40:08.756Z,100283.27
2023-04-16T14:42:37.292Z,100282.09
2023-04-16T14:45:06.842Z,100279.07
2023-04-16T14:47:36.861Z,100279.52
2023-04-16T14:50:06.528Z,100277.77
2023-04-16T14:52:34.904Z,100278.42
2023-04-16T14:55:03.633Z,100281.71
2023-04-16T14:57:33.388Z,100279.70
2023-04-16T15:00:02.283Z,100280.66
2023-04-16T15:02:31.028Z,100286.17
2023-04-16T15:05:00.246Z,100283.40
2023-04-16T15:07:28.633Z,100286.48
2023-04-16T15:09:57.022Z,100289.67
2023-04-16T15:12:26.839Z,100288.86
2023-04-16T15:15:15.646Z,100288.11
2023-04-16T15:17:44.155Z,100288.34
2023-04-16T15:20:12.936Z,100285.95
2023-04-16T15:22:41.383Z,100286.29
2023-04-16T15:25:10.117Z,100289.27
2023-04-16T15:27:38.665Z,100290.94
2023-04-16T15:30:08.144Z,100291.31
2023-04-16T15:32:36.617Z,100292.99
2023-04-16T15:35:06.515Z,100292.34
2023-04-16T15:37:34.970Z,100294.78
2023-04-16T15:40:05.689Z,100297.47
2023-04-16T15:42:34.637Z,100297.85
2023-04-16T15:45:03.180Z,100298.10
2023-04-16T15:47:31.588Z,100299.11
2023-04-16T15:50:00.056Z,100301.63
2023-04-16T15:52:28.546Z,100303.84
2023-04-16T15:54:56.947Z,100301.34
2023-04-16T15:57:25.427Z,100300.20
2023-04-16T16:00:06.631Z,100300.88
2023-04-16T16:02:36.229Z,100303.11
2023-04-16T16:05:07.617Z,100302.69
2023-04-16T16:07:36.310Z,100304.59
2023-04-16T16:10:06.598Z,100305.21
2023-04-16T16:12:35.000Z,100305.96
2023-04-16T16:15:04.741Z,100305.27
2023-04-16T16:17:33.590Z,100309.92
2023-04-16T16:20:02.036Z,100312.38
2023-04-16T16:22:30.607Z,100309.67
2023-04-16T16:24:59.025Z,100312.01
2023-04-16T16:27:27.399Z,100313.81
2023-04-16T16:29:55.839Z,100313.79
2023-04-16T16:32:24.289Z,100315.75
2023-04-16T16:34:52.693Z,100315.46
2023-04-16T16:37:21.241Z,100318.58
2023-04-16T16:39:49.921Z,100322.77
2023-04-16T16:42:18.965Z,100322.39
2023-04-16T16:44:48.919Z,100327.17
2023-04-16T16:47:17.603Z,100322.86
2023-04-16T16:49:46.152Z,100324.97
2023-04-16T16:52:14.528Z,100328.38
2023-04-16T16:54:42.889Z,100331.02
2023-04-16T16:57:12.522Z,100334.23
2023-04-16T16:59:40.918Z,100336.59
2023-04-16T17:02:09.500Z,100340.96
2023-04-16T17:04:38.207Z,100339.58
2023-04-16T17:07:06.883Z,100342.98
2023-04-16T17:09:35.626Z,100339.66
2023-04-16T17:12:05.094Z,100345.94
2023-04-16T17:14:33.802Z,100349.17
2023-04-16T17:17:02.298Z,100352.85
2023-04-16T17:19:31.040Z,100352.41
2023-04-16T17:21:59.454Z,100356.09
2023-04-16T17:24:27.828Z,100358.81
2023-04-16T17:26:56.498Z,100361.73
2023-04-16T17:29:26.309Z,100366.29
2023-04-16T17:31:54.787Z,100372.18
2023-04-16T17:34:23.942Z,100382.97
2023-04-16T17:52:32.932Z,100408.48
2023-04-16T17:55:01.742Z,100412.18
2023-04-16T17:57:31.485Z,100418.08
2023-04-16T18:00:00.355Z,100427.44
2023-04-16T18:02:28.908Z,100430.94
2023-04-16T18:04:58.844Z,100433.33
2023-04-16T18:07:27.629Z,100431.25
2023-04-16T18:09:56.458Z,100433.52
2023-04-16T18:12:24.889Z,100442.06
2023-04-16T18:14:53.239Z,100447.54
2023-04-16T18:17:24.280Z,100445.98
2023-04-16T18:19:52.637Z,100445.48
2023-04-16T18:22:21.071Z,100449.58
2023-04-16T18:24:49.676Z,100452.89
2023-04-16T18:27:18.199Z,100454.11
2023-04-16T18:29:46.593Z,100456.45
2023-04-16T18:32:15.002Z,100459.66
2023-04-16T18:34:44.324Z,100460.38
2023-04-16T18:37:12.696Z,100466.85
2023-04-16T18:39:41.816Z,100470.20
2023-04-16T18:42:10.105Z,100477.64
2023-04-16T18:44:38.450Z,100473.96
2023-04-16T18:47:06.748Z,100477.83
2023-04-16T18:49:35.453Z,100477.02
2023-04-16T18:52:03.875Z,100478.64
2023-04-16T18:54:32.248Z,100479.48
2023-04-16T18:57:02.103Z,100482.69
2023-04-16T18:59:30.593Z,100484.20
2023-04-16T19:01:59.061Z,100488.58
2023-04-16T19:04:27.518Z,100489.73
2023-04-16T19:06:55.986Z,100491.33
2023-04-16T19:09:26.705Z,100489.95
2023-04-16T19:11:55.029Z,100495.73
2023-04-16T19:14:23.392Z,100497.67
2023-04-16T19:16:51.698Z,100495.14
2023-04-16T19:19:20.096Z,100497.34
2023-04-16T19:21:49.687Z,100499.77
2023-04-16T19:24:18.901Z,100501.41
2023-04-16T19:26:47.222Z,100503.00
2023-04-16T19:29:15.974Z,100503.98
2023-04-16T19:31:47.046Z,100505.29
2023-04-16T19:34:15.888Z,100506.23
2023-04-16T19:36:45.338Z,100504.28
2023-04-16T19:39:13.735Z,100503.45
2023-04-16T19:41:42.258Z,100504.14
2023-04-16T19:44:11.141Z,100505.23
2023-04-16T19:46:39.447Z,100510.07
2023-04-16T19:49:08.407Z,100507.96
2023-04-16T19:51:36.945Z,100506.88
2023-04-16T19:54:05.822Z,100507.98
2023-04-16T19:56:34.100Z,100510.98
2023-04-16T19:59:02.665Z,100512.56
2023-04-16T20:01:31.338Z,100512.15
2023-04-16T20:03:59.873Z,100509.27
2023-04-16T20:06:28.233Z,100511.02
2023-04-16T20:08:57.471Z,100511.61
2023-04-16T20:11:26.080Z,100512.98
2023-04-16T20:13:54.593Z,100512.45
2023-04-16T20:16:23.316Z,100511.77
2023-04-16T20:18:54.406Z,100514.35
2023-04-16T20:21:23.090Z,100513.11
2023-04-16T20:23:51.402Z,100510.81
2023-04-16T20:26:19.777Z,100513.80
2023-04-16T20:28:48.052Z,100509.75
2023-04-16T20:31:16.618Z,100506.45
2023-04-16T20:33:44.985Z,100502.89
2023-04-16T20:36:13.542Z,100501.63
2023-04-16T20:38:43.710Z,100502.94
2023-04-16T20:41:14.707Z,100499.31
2023-04-16T20:43:43.906Z,100501.27
2023-04-16T20:46:12.725Z,100500.42
2023-04-16T20:48:41.232Z,100504.05
2023-04-16T21:00:14.020Z,100502.69
2023-04-16T21:02:43.600Z,100507.00
2023-04-16T21:05:14.656Z,100508.52
2023-04-16T21:07:43.587Z,100515.52
2023-04-16T21:10:12.024Z,100513.07
2023-04-16T21:12:40.457Z,100511.33
2023-04-16T21:15:09.356Z,100508.58
2023-04-16T21:17:37.728Z,100511.67
2023-04-16T21:20:10.766Z,100511.77
2023-04-16T21:22:39.098Z,100511.30
2023-04-16T21:25:08.506Z,100506.85
2023-04-16T21:27:37.012Z,100508.02
2023-04-16T21:30:06.084Z,100507.27
2023-04-16T21:32:34.382Z,100507.59
2023-04-16T21:35:02.801Z,100510.91
2023-04-16T21:37:31.133Z,100507.30
2023-04-16T21:40:00.040Z,100505.77
2023-04-16T21:42:28.441Z,100503.91
2023-04-16T21:44:57.027Z,100504.29
2023-04-16T21:47:25.562Z,100503.27
2023-04-16T21:49:54.178Z,100503.70
2023-04-16T21:52:22.617Z,100502.63
2023-04-16T21:54:51.171Z,100501.16
2023-04-16T21:57:19.520Z,100507.90
2023-04-16T21:59:47.841Z,100503.17
2023-04-16T22:02:16.429Z,100501.48
2023-04-16T22:04:44.949Z,100498.98
2023-04-16T22:07:13.338Z,100501.25
2023-04-16T22:09:41.888Z,100499.15
2023-04-16T22:12:10.613Z,100497.36
2023-04-16T22:14:44.033Z,100494.81
2023-04-16T22:17:17.164Z,100493.90
2023-04-16T22:19:45.580Z,100492.46
2023-04-16T22:22:13.936Z,100493.86
2023-04-16T22:24:42.483Z,100494.23
2023-04-16T22:27:10.866Z,100495.26
2023-04-16T22:29:39.224Z,100497.48
2023-04-16T22:32:07.604Z,100496.36
2023-04-16T22:34:36.261Z,100502.10
2023-04-16T22:37:05.176Z,100499.38
2023-04-16T22:39:34.704Z,100502.81
2023-04-16T22:42:03.297Z,100506.36
2023-04-16T22:44:31.692Z,100511.09
2023-04-16T22:47:00.066Z,100511.46
2023-04-16T22:49:33.307Z,100511.17
2023-04-16T22:52:02.750Z,100512.45
2023-04-16T22:54:31.922Z,100514.02
2023-04-16T22:57:00.992Z,100510.13
2023-04-16T22:59:29.393Z,100508.21
2023-04-16T23:01:58.080Z,100510.49
2023-04-16T23:04:26.626Z,100509.52
2023-04-16T23:06:55.143Z,100513.02
2023-04-16T23:09:23.578Z,100511.02
2023-04-16T23:11:51.977Z,100513.81
2023-04-16T23:14:21.402Z,100510.80
2023-04-16T23:16:49.705Z,100515.80
2023-04-16T23:19:18.185Z,100516.98
2023-04-16T23:21:46.455Z,100515.60
2023-04-16T23:24:14.952Z,100513.00
2023-04-16T23:26:43.376Z,100514.47
2023-04-16T23:29:11.725Z,100513.23
2023-04-16T23:31:40.305Z,100517.88
2023-04-16T23:34:08.701Z,100520.09
2023-04-16T23:36:37.116Z,100514.90
2023-04-16T23:39:05.543Z,100516.05
2023-04-16T23:41:34.731Z,100514.55
2023-04-16T23:44:03.169Z,100516.02
2023-04-16T23:46:31.651Z,100512.42
2023-04-16T23:49:00.161Z,100512.73
2023-04-16T23:51:28.470Z,100514.89
2023-04-16T23:53:56.893Z,100510.70
2023-04-16T23:56:25.486Z,100511.34
2023-04-16T23:58:53.834Z,100509.91
